Time;durP1;ratioP1;P1;durP2;ratioP2;P2;SDS_P1;SDS_P2;PMS_P1;PMS_P2;Temp;Humidity;BMP_temperature;BMP_pressure;BME280_temperature;BME280_humidity;BME280_pressure;Samples;Min_cycle;Max_cycle;Signal;HPM_P1;HPM_P2
2022/03/28 00:01:04;;;;;;;;;;;;;;;9.34;36.03;93664.44;2055621;70;20054;-72
2022/03/28 00:03:29;;;;;;;;;;;;;;;9.49;35.02;93657.91;2055847;70;20051;-73
2022/03/28 00:05:55;;;;;;;;;;;;;;;9.42;36.25;93656.66;2055832;70;20086;-72
2022/03/28 00:08:20;;;;;;;;;;;;;;;9.34;35.30;93658.81;2055640;70;20050;-72
2022/03/28 00:10:46;;;;;;;;;;;;;;;9.34;35.89;93653.94;2055904;70;20077;-71
2022/03/28 00:13:12;;;;;;;;;;;;;;;9.35;35.90;93649.06;2055788;70;20054;-72
2022/03/28 00:15:38;;;;;;;;;;;;;;;9.45;35.43;93649.88;2055661;70;20054;-71
2022/03/28 00:18:03;;;;;;;;;;;;;;;9.29;35.56;93646.50;2055576;70;20046;-72
2022/03/28 00:20:29;;;;;;;;;;;;;;;9.40;35.41;93643.19;2065860;69;20050;-72
2022/03/28 00:22:55;;;;;;;;;;;;;;;9.38;35.22;93640.22;2055701;70;20051;-72
2022/03/28 00:25:20;;;;;;;;;;;;;;;10.11;32.98;93642.41;2055804;70;20062;-72
2022/03/28 00:27:46;;;;;;;;;;;;;;;9.79;33.47;93642.69;2055570;69;20144;-71
2022/03/28 00:30:11;;;;;;;;;;;;;;;9.63;34.33;93642.91;2055297;70;20051;-72
2022/03/28 00:32:37;;;;;;;;;;;;;;;8.88;36.43;93648.81;2065752;69;20062;-73
2022/03/28 00:35:03;;;;;;;;;;;;;;;9.13;36.36;93636.78;2055775;70;20482;-71
2022/03/28 00:37:28;;;;;;;;;;;;;;;8.90;37.07;93637.78;2055628;70;20054;-72
2022/03/28 00:39:54;;;;;;;;;;;;;;;9.19;35.60;93634.44;2068627;69;20054;-72
2022/03/28 00:42:19;;;;;;;;;;;;;;;9.64;33.80;93632.41;2055407;70;20082;-72
2022/03/28 00:44:45;;;;;;;;;;;;;;;8.89;37.04;93625.06;2055561;70;20052;-71
2022/03/28 00:47:10;;;;;;;;;;;;;;;8.66;37.03;93632.97;2055838;69;20054;-72
2022/03/28 00:49:36;;;;;;;;;;;;;;;8.87;36.43;93633.31;2055817;70;20046;-72
2022/03/28 00:52:02;;;;;;;;;;;;;;;8.90;37.09;93629.34;2068552;69;20146;-73
2022/03/28 00:54:27;;;;;;;;;;;;;;;8.88;36.67;93631.25;2055653;70;20116;-72
2022/03/28 00:56:53;;;;;;;;;;;;;;;9.03;36.55;93630.34;2068850;69;20422;-72
2022/03/28 00:59:19;;;;;;;;;;;;;;;8.99;35.79;93632.81;2068437;69;20119;-72
2022/03/28 01:01:46;;;;;;;;;;;;;;;9.07;36.65;93627.84;2068516;69;20054;-72
2022/03/28 01:04:11;;;;;;;;;;;;;;;8.89;36.65;93635.56;2055375;69;20042;-71
2022/03/28 01:06:37;;;;;;;;;;;;;;;8.63;37.00;93631.31;2068737;69;20599;-73
2022/03/28 01:09:03;;;;;;;;;;;;;;;8.79;37.47;93627.00;2055513;70;20050;-73
2022/03/28 01:11:29;;;;;;;;;;;;;;;9.07;35.54;93620.19;2055563;70;20085;-73
2022/03/28 01:13:55;;;;;;;;;;;;;;;9.02;35.10;93626.03;2055383;70;20050;-73
2022/03/28 01:16:21;;;;;;;;;;;;;;;8.77;36.87;93623.31;2055677;69;20050;-73
2022/03/28 01:18:50;;;;;;;;;;;;;;;8.68;36.33;93616.28;2055496;70;20078;-73
2022/03/28 01:21:19;;;;;;;;;;;;;;;8.74;35.94;93616.78;2068468;69;20057;-73
2022/03/28 01:23:44;;;;;;;;;;;;;;;8.71;36.96;93608.78;2055464;70;20054;-74
2022/03/28 01:26:12;;;;;;;;;;;;;;;8.63;36.53;93618.03;2055539;70;20059;-72
2022/03/28 01:28:38;;;;;;;;;;;;;;;8.38;38.22;93612.47;2055486;70;20510;-71
2022/03/28 01:31:03;;;;;;;;;;;;;;;8.93;36.20;93613.38;2055229;70;20112;-71
2022/03/28 01:33:29;;;;;;;;;;;;;;;8.56;37.54;93606.84;2068393;69;20425;-73
2022/03/28 01:35:54;;;;;;;;;;;;;;;8.90;36.05;93615.31;2068425;69;20514;-73
2022/03/28 01:38:21;;;;;;;;;;;;;;;8.59;37.17;93614.13;2055347;69;20053;-73
2022/03/28 01:40:51;;;;;;;;;;;;;;;8.37;37.27;93613.03;2055470;69;20133;-73
2022/03/28 01:43:17;;;;;;;;;;;;;;;8.40;36.88;93603.47;2055547;70;20446;-72
2022/03/28 01:45:44;;;;;;;;;;;;;;;8.38;37.43;93620.88;2068387;69;20054;-72
2022/03/28 01:48:09;;;;;;;;;;;;;;;8.12;38.33;93605.34;2055425;70;20043;-73
2022/03/28 01:50:35;;;;;;;;;;;;;;;8.19;37.46;93609.41;2055337;69;20505;-72
2022/03/28 01:53:00;;;;;;;;;;;;;;;8.33;37.30;93612.66;2065724;69;20467;-72
2022/03/28 01:55:26;;;;;;;;;;;;;;;8.08;38.39;93607.06;2055176;70;20058;-72
2022/03/28 01:57:52;;;;;;;;;;;;;;;7.92;39.11;93608.50;2055306;70;20066;-72
2022/03/28 02:00:19;;;;;;;;;;;;;;;7.99;38.54;93608.44;2055101;69;20086;-73
2022/03/28 02:02:47;;;;;;;;;;;;;;;7.99;38.63;93604.91;2055325;69;20064;-72
2022/03/28 02:05:14;;;;;;;;;;;;;;;7.89;38.41;93611.16;2065448;69;20046;-72
2022/03/28 02:07:40;;;;;;;;;;;;;;;7.75;39.39;93609.94;2068272;69;20057;-73
2022/03/28 02:10:09;;;;;;;;;;;;;;;7.79;39.28;93601.13;2055314;70;20505;-72
2022/03/28 02:12:35;;;;;;;;;;;;;;;7.69;39.70;93609.41;2055294;70;20053;-72
2022/03/28 02:15:00;;;;;;;;;;;;;;;7.62;39.35;93607.41;2068316;69;20145;-73
2022/03/28 02:17:26;;;;;;;;;;;;;;;7.64;39.70;93605.50;2068518;69;20061;-72
2022/03/28 02:19:52;;;;;;;;;;;;;;;7.51;40.02;93597.38;2055522;70;20213;-72
2022/03/28 02:22:17;;;;;;;;;;;;;;;7.41;41.02;93598.56;2055407;70;20070;-73
2022/03/28 02:24:42;;;;;;;;;;;;;;;7.23;41.07;93598.47;2055549;70;20046;-72
2022/03/28 02:27:08;;;;;;;;;;;;;;;7.47;39.45;93596.28;2068205;69;20097;-72
2022/03/28 02:29:33;;;;;;;;;;;;;;;7.89;37.10;93593.59;2055302;70;20141;-72
2022/03/28 02:31:59;;;;;;;;;;;;;;;7.47;40.46;93596.28;2055371;69;20489;-72
2022/03/28 02:34:25;;;;;;;;;;;;;;;7.75;38.40;93592.38;2055546;69;20090;-72
2022/03/28 02:36:50;;;;;;;;;;;;;;;7.77;38.48;93598.16;2068573;69;20149;-72
2022/03/28 02:39:15;;;;;;;;;;;;;;;7.61;38.22;93589.84;2055591;70;20073;-72
2022/03/28 02:41:41;;;;;;;;;;;;;;;7.58;39.03;93593.03;2055349;70;20050;-72
2022/03/28 02:44:07;;;;;;;;;;;;;;;7.62;39.09;93582.19;2068088;69;20059;-72
2022/03/28 02:46:33;;;;;;;;;;;;;;;7.99;37.45;93585.28;2068437;69;20501;-72
2022/03/28 02:48:58;;;;;;;;;;;;;;;8.28;34.90;93589.13;2068493;69;20082;-72
2022/03/28 02:51:24;;;;;;;;;;;;;;;8.29;35.68;93585.03;2055505;70;20868;-72
2022/03/28 02:53:49;;;;;;;;;;;;;;;8.30;35.26;93580.91;2068436;69;20058;-71
2022/03/28 02:56:15;;;;;;;;;;;;;;;8.05;36.46;93583.72;2055164;70;20081;-71
2022/03/28 02:58:40;;;;;;;;;;;;;;;8.14;36.19;93582.34;2055108;69;20117;-70
2022/03/28 03:01:06;;;;;;;;;;;;;;;7.92;36.95;93577.66;2055058;70;20053;-71
2022/03/28 03:03:31;;;;;;;;;;;;;;;7.79;38.04;93578.69;2055306;70;20053;-71
2022/03/28 03:05:57;;;;;;;;;;;;;;;7.73;38.15;93576.13;2055456;70;20515;-71
2022/03/28 03:08:23;;;;;;;;;;;;;;;7.79;36.53;93576.66;2055832;69;20059;-71
2022/03/28 03:10:48;;;;;;;;;;;;;;;7.98;36.06;93573.31;2055961;69;20054;-71
2022/03/28 03:13:14;;;;;;;;;;;;;;;7.77;37.25;93578.53;2056078;70;20046;-73
2022/03/28 03:15:40;;;;;;;;;;;;;;;7.35;39.14;93579.91;2055850;70;20120;-72
2022/03/28 03:18:05;;;;;;;;;;;;;;;7.54;38.24;93573.81;2069044;69;20058;-73
2022/03/28 03:20:32;;;;;;;;;;;;;;;7.62;37.73;93582.19;2056105;69;20505;-73
2022/03/28 03:22:57;;;;;;;;;;;;;;;7.63;37.68;93581.59;2055975;69;20101;-72
2022/03/28 03:25:23;;;;;;;;;;;;;;;7.74;37.35;93574.78;2069111;69;20089;-72
2022/03/28 03:27:51;;;;;;;;;;;;;;;7.69;37.64;93575.03;2055964;70;20054;-73
2022/03/28 03:30:17;;;;;;;;;;;;;;;6.97;40.21;93568.19;2055869;70;20061;-72
2022/03/28 03:32:43;;;;;;;;;;;;;;;7.03;38.63;93569.44;2056073;70;20560;-73
2022/03/28 03:35:09;;;;;;;;;;;;;;;7.24;38.37;93571.97;2055912;70;20054;-73
2022/03/28 03:37:34;;;;;;;;;;;;;;;7.13;39.55;93569.56;2056021;70;20054;-72
2022/03/28 03:40:00;;;;;;;;;;;;;;;7.34;39.07;93566.50;2068879;69;20062;-73
2022/03/28 03:42:25;;;;;;;;;;;;;;;7.07;39.73;93569.06;2056069;70;20046;-72
2022/03/28 03:44:51;;;;;;;;;;;;;;;7.14;38.42;93568.25;2068937;69;20057;-72
2022/03/28 03:47:16;;;;;;;;;;;;;;;7.27;38.52;93578.47;2055872;69;20056;-72
2022/03/28 03:49:41;;;;;;;;;;;;;;;7.13;39.66;93578.72;2068909;69;20112;-73
2022/03/28 03:52:07;;;;;;;;;;;;;;;6.98;39.85;93578.78;2069002;69;20066;-72
2022/03/28 03:54:32;;;;;;;;;;;;;;;7.34;37.38;93572.09;2068954;69;20050;-73
2022/03/28 03:56:58;;;;;;;;;;;;;;;7.29;38.52;93570.25;2056159;70;20062;-72
2022/03/28 03:59:23;;;;;;;;;;;;;;;7.18;39.29;93570.66;2055774;69;20138;-72
2022/03/28 04:01:49;;;;;;;;;;;;;;;7.21;38.76;93573.09;2055897;70;20057;-72
2022/03/28 04:04:14;;;;;;;;;;;;;;;6.70;41.03;93573.50;2055982;70;20502;-73
2022/03/28 04:06:40;;;;;;;;;;;;;;;6.83;40.17;93576.06;2056022;70;20054;-73
2022/03/28 04:09:05;;;;;;;;;;;;;;;6.79;40.86;93570.13;2068913;69;20099;-73
2022/03/28 04:11:31;;;;;;;;;;;;;;;6.98;39.67;93564.06;2068917;69;20057;-72
2022/03/28 04:13:57;;;;;;;;;;;;;;;6.99;39.26;93560.69;2068709;69;20041;-73
2022/03/28 04:16:23;;;;;;;;;;;;;;;6.96;37.84;93563.88;2072158;69;20045;-72
2022/03/28 04:18:48;;;;;;;;;;;;;;;7.00;39.28;93570.56;2072142;69;20056;-72
2022/03/28 04:21:14;;;;;;;;;;;;;;;6.53;41.04;93568.50;2072199;69;20036;-72
2022/03/28 04:23:39;;;;;;;;;;;;;;;6.76;40.28;93563.56;2072597;69;20465;-73
2022/03/28 04:26:05;;;;;;;;;;;;;;;6.70;40.53;93570.69;2072104;69;20056;-72
2022/03/28 04:28:30;;;;;;;;;;;;;;;6.57;40.86;93561.22;2071727;69;20466;-73
2022/03/28 04:30:56;;;;;;;;;;;;;;;6.65;40.61;93566.06;2071473;69;20499;-74
2022/03/28 04:33:22;;;;;;;;;;;;;;;6.79;39.03;93559.66;2072367;69;20055;-73
2022/03/28 04:35:47;;;;;;;;;;;;;;;6.92;37.45;93555.88;2071979;69;20069;-74
2022/03/28 04:38:13;;;;;;;;;;;;;;;6.47;41.45;93560.31;2072077;69;20049;-74
2022/03/28 04:40:39;;;;;;;;;;;;;;;6.33;41.51;93557.00;2072052;69;20124;-74
2022/03/28 04:43:05;;;;;;;;;;;;;;;6.30;42.52;93563.72;2072409;69;20228;-74
2022/03/28 04:45:31;;;;;;;;;;;;;;;6.28;42.15;93560.75;2072022;69;20052;-74
2022/03/28 04:48:00;;;;;;;;;;;;;;;6.45;40.29;93562.19;2071717;69;20109;-74
2022/03/28 04:50:26;;;;;;;;;;;;;;;6.47;41.13;93556.78;2072116;69;20044;-74
2022/03/28 04:52:52;;;;;;;;;;;;;;;6.44;40.76;93552.31;2072028;69;20139;-74
2022/03/28 04:55:18;;;;;;;;;;;;;;;6.17;43.02;93557.59;2072037;69;20577;-74
2022/03/28 04:57:43;;;;;;;;;;;;;;;6.21;41.90;93563.53;2071510;69;20056;-73
2022/03/28 05:00:10;;;;;;;;;;;;;;;6.24;41.74;93560.38;2071946;69;20048;-74
2022/03/28 05:02:36;;;;;;;;;;;;;;;6.20;42.04;93560.00;2071470;69;20052;-73
2022/03/28 05:05:05;;;;;;;;;;;;;;;6.00;42.97;93564.50;2072020;69;20523;-73
2022/03/28 05:07:31;;;;;;;;;;;;;;;6.13;42.82;93560.00;2071460;69;20061;-73
2022/03/28 05:09:57;;;;;;;;;;;;;;;6.37;41.50;93565.03;2072003;69;20049;-73
2022/03/28 05:12:23;;;;;;;;;;;;;;;6.30;41.59;93562.97;2069558;69;20067;-74
2022/03/28 05:14:50;;;;;;;;;;;;;;;6.34;41.37;93560.53;2055665;69;20049;-73
2022/03/28 05:17:19;;;;;;;;;;;;;;;6.37;41.24;93565.03;2068777;69;20528;-74
2022/03/28 05:19:45;;;;;;;;;;;;;;;6.33;41.85;93565.38;2055726;69;20050;-74
2022/03/28 05:22:10;;;;;;;;;;;;;;;6.29;41.64;93562.22;2055808;70;20062;-74
2022/03/28 05:24:36;;;;;;;;;;;;;;;6.33;40.99;93573.03;2055835;70;20137;-74
2022/03/28 05:27:01;;;;;;;;;;;;;;;6.30;41.33;93566.50;2055652;70;20184;-73
2022/03/28 05:29:27;;;;;;;;;;;;;;;6.12;42.21;93553.69;2055482;69;20082;-73
2022/03/28 05:31:53;;;;;;;;;;;;;;;6.26;38.50;93557.75;2055677;70;20061;-74
2022/03/28 05:34:18;;;;;;;;;;;;;;;6.30;40.29;93560.19;2055726;70;20501;-73
2022/03/28 05:36:45;;;;;;;;;;;;;;;6.27;41.99;93559.22;2055705;70;20119;-74
2022/03/28 05:39:11;;;;;;;;;;;;;;;6.18;42.83;93561.88;2068579;69;20058;-73
2022/03/28 05:41:37;;;;;;;;;;;;;;;6.00;43.22;93574.94;2068580;69;20050;-73
2022/03/28 05:44:02;;;;;;;;;;;;;;;5.96;43.86;93575.31;2055530;70;20486;-73
2022/03/28 05:46:28;;;;;;;;;;;;;;;6.03;43.16;93571.75;2055652;70;20069;-74
2022/03/28 05:48:53;;;;;;;;;;;;;;;6.07;42.86;93574.94;2055794;70;20483;-73
2022/03/28 05:51:19;;;;;;;;;;;;;;;6.26;41.35;93571.00;2055649;70;20053;-74
2022/03/28 05:53:44;;;;;;;;;;;;;;;6.11;42.58;93582.94;2068667;69;20057;-73
2022/03/28 05:56:10;;;;;;;;;;;;;;;6.06;43.05;93575.50;2055731;70;20115;-74
2022/03/28 05:58:36;;;;;;;;;;;;;;;6.08;43.22;93584.06;2068570;69;20111;-73
2022/03/28 06:01:01;;;;;;;;;;;;;;;6.20;42.60;93585.19;2055477;70;20053;-73
2022/03/28 06:03:27;;;;;;;;;;;;;;;6.10;43.68;93579.41;2055561;70;20057;-73
2022/03/28 06:05:54;;;;;;;;;;;;;;;6.07;43.29;93576.97;2055666;70;20082;-73
2022/03/28 06:08:19;;;;;;;;;;;;;;;6.25;42.88;93569.50;2055498;69;20143;-73
2022/03/28 06:10:44;;;;;;;;;;;;;;;6.21;41.79;93571.94;2068535;69;20051;-73
2022/03/28 06:13:11;;;;;;;;;;;;;;;6.25;42.14;93570.25;2055628;70;20112;-73
2022/03/28 06:15:37;;;;;;;;;;;;;;;6.30;41.25;93563.72;2055509;70;20490;-73
2022/03/28 06:18:03;;;;;;;;;;;;;;;6.16;42.82;93572.88;2055672;70;20058;-74
2022/03/28 06:20:29;;;;;;;;;;;;;;;6.27;42.75;93570.41;2055454;69;20058;-74
2022/03/28 06:22:54;;;;;;;;;;;;;;;6.23;42.68;93560.91;2068530;69;20115;-73
2022/03/28 06:25:20;;;;;;;;;;;;;;;6.01;42.32;93568.78;2055579;70;20058;-74
2022/03/28 06:27:45;;;;;;;;;;;;;;;6.14;43.95;93565.06;2055576;69;20053;-73
2022/03/28 06:30:11;;;;;;;;;;;;;;;6.08;44.72;93565.22;2055539;70;20575;-73
2022/03/28 06:32:38;;;;;;;;;;;;;;;6.07;44.29;93572.13;2068590;69;20082;-74
2022/03/28 06:35:04;;;;;;;;;;;;;;;6.10;43.89;93567.50;2055589;69;20212;-74
2022/03/28 06:37:30;;;;;;;;;;;;;;;6.33;43.30;93565.38;2055602;70;20053;-74
2022/03/28 06:39:55;;;;;;;;;;;;;;;6.34;43.66;93563.34;2055531;70;20051;-73
2022/03/28 06:42:21;;;;;;;;;;;;;;;6.42;42.91;93557.72;2068446;69;20046;-74
2022/03/28 06:44:46;;;;;;;;;;;;;;;6.54;41.27;93561.59;2068310;69;20082;-74
2022/03/28 06:47:12;;;;;;;;;;;;;;;6.46;42.82;93558.84;2055460;70;20082;-74
2022/03/28 06:49:37;;;;;;;;;;;;;;;6.63;41.58;93561.75;2055564;70;20066;-74
2022/03/28 06:52:03;;;;;;;;;;;;;;;6.65;42.04;93555.59;2055463;70;20145;-74
2022/03/28 06:54:29;;;;;;;;;;;;;;;6.82;39.86;93546.56;2068544;69;20054;-74
2022/03/28 06:56:55;;;;;;;;;;;;;;;6.80;41.14;93554.81;2055508;69;20054;-74
2022/03/28 06:59:22;;;;;;;;;;;;;;;6.58;41.86;93553.56;2055424;70;20039;-74
2022/03/28 07:01:47;;;;;;;;;;;;;;;6.68;42.08;93553.72;2055523;70;20051;-74
2022/03/28 07:04:13;;;;;;;;;;;;;;;6.73;40.88;93547.16;2055490;70;20053;-74
2022/03/28 07:06:38;;;;;;;;;;;;;;;6.85;39.99;93545.44;2068516;69;20050;-74
2022/03/28 07:09:04;;;;;;;;;;;;;;;6.93;39.00;93548.97;2055487;69;20042;-74
2022/03/28 07:11:30;;;;;;;;;;;;;;;6.88;40.54;93547.88;2055422;70;20086;-73
2022/03/28 07:13:56;;;;;;;;;;;;;;;6.98;40.80;93544.47;2055375;70;20050;-73
2022/03/28 07:16:21;;;;;;;;;;;;;;;7.08;41.23;93539.75;2068525;69;20049;-73
2022/03/28 07:18:47;;;;;;;;;;;;;;;6.66;42.71;93548.69;2055574;70;20051;-72
2022/03/28 07:21:13;;;;;;;;;;;;;;;6.70;42.30;93546.25;2068454;69;20054;-73
2022/03/28 07:23:39;;;;;;;;;;;;;;;6.88;42.54;93539.47;2055446;70;20043;-73
2022/03/28 07:26:04;;;;;;;;;;;;;;;7.33;40.29;93536.97;2055418;70;20060;-73
2022/03/28 07:28:30;;;;;;;;;;;;;;;7.61;41.23;93542.22;2055583;70;20046;-72
2022/03/28 07:30:55;;;;;;;;;;;;;;;8.11;41.57;93542.19;2068264;69;20061;-72
2022/03/28 07:33:21;;;;;;;;;;;;;;;8.58;40.20;93543.22;2055470;70;20061;-72
2022/03/28 07:35:47;;;;;;;;;;;;;;;9.14;37.27;93532.25;2068596;69;20053;-73
2022/03/28 07:38:13;;;;;;;;;;;;;;;9.59;40.50;93537.81;2068361;69;20054;-73
2022/03/28 07:40:39;;;;;;;;;;;;;;;9.89;37.33;93528.91;2068357;69;20597;-73
2022/03/28 07:43:04;;;;;;;;;;;;;;;10.38;35.92;93529.06;2055379;70;20058;-73
2022/03/28 07:45:30;;;;;;;;;;;;;;;10.85;37.42;93529.66;2055280;70;20050;-73
2022/03/28 07:47:56;;;;;;;;;;;;;;;10.67;37.35;93523.44;2055361;70;20042;-74
2022/03/28 07:50:21;;;;;;;;;;;;;;;11.35;35.13;93526.19;2068357;69;20049;-74
2022/03/28 07:52:47;;;;;;;;;;;;;;;12.44;34.55;93524.56;2068680;69;20050;-73
2022/03/28 07:55:13;;;;;;;;;;;;;;;12.71;32.22;93521.41;2055920;70;20384;-74
2022/03/28 07:57:39;;;;;;;;;;;;;;;13.08;32.07;93518.16;2055777;69;20077;-74
2022/03/28 08:00:07;;;;;;;;;;;;;;;13.05;33.94;93512.97;2055633;70;20039;-76
2022/03/28 08:02:38;;;;;;;;;;;;;;;12.47;33.05;93511.34;2055782;70;20149;-75
2022/03/28 08:05:07;;;;;;;;;;;;;;;13.48;31.25;93505.16;2055745;69;20055;-75
2022/03/28 08:07:33;;;;;;;;;;;;;;;12.99;32.04;93502.00;2055726;69;20475;-75
2022/03/28 08:09:59;;;;;;;;;;;;;;;13.39;31.99;93497.50;2068851;69;20081;-75
2022/03/28 08:12:24;;;;;;;;;;;;;;;14.34;30.89;93504.69;2055824;70;20430;-75
2022/03/28 08:14:51;;;;;;;;;;;;;;;15.72;27.45;93501.28;2068788;69;20149;-75
2022/03/28 08:17:19;;;;;;;;;;;;;;;14.89;28.90;93494.50;2055822;70;20057;-75
2022/03/28 08:19:44;;;;;;;;;;;;;;;15.31;28.51;93486.94;2055834;70;20043;-78
2022/03/28 08:22:10;;;;;;;;;;;;;;;15.53;28.43;93493.09;2066208;69;20048;-75
2022/03/28 08:24:35;;;;;;;;;;;;;;;16.69;26.27;93476.50;2068825;69;20567;-75
2022/03/28 08:27:01;;;;;;;;;;;;;;;16.57;26.34;93486.53;2055836;70;20145;-74
2022/03/28 08:29:26;;;;;;;;;;;;;;;17.49;24.32;93478.28;2055872;70;20066;-74
2022/03/28 08:31:52;;;;;;;;;;;;;;;16.83;25.89;93478.63;2056160;70;20153;-74
2022/03/28 08:34:18;;;;;;;;;;;;;;;16.87;25.86;93465.34;2068896;69;20054;-74
2022/03/28 08:36:43;;;;;;;;;;;;;;;16.89;25.25;93473.22;2055806;70;20042;-74
2022/03/28 08:39:09;;;;;;;;;;;;;;;16.79;26.36;93470.63;2068848;69;20049;-74
2022/03/28 08:41:35;;;;;;;;;;;;;;;16.82;26.07;93466.53;2055825;70;20050;-74
2022/03/28 08:44:00;;;;;;;;;;;;;;;17.49;23.70;93469.00;2055748;69;20062;-74
2022/03/28 08:46:29;;;;;;;;;;;;;;;17.59;23.36;93460.22;2068787;69;20141;-77
2022/03/28 08:48:55;;;;;;;;;;;;;;;17.88;22.91;93451.66;2068821;69;20062;-77
2022/03/28 08:51:21;;;;;;;;;;;;;;;17.76;24.36;93448.97;2055772;70;20042;-77
2022/03/28 08:53:47;;;;;;;;;;;;;;;18.23;23.11;93436.81;2055859;70;20042;-74
2022/03/28 08:56:12;;;;;;;;;;;;;;;18.60;23.75;93435.59;2055701;70;20165;-75
2022/03/28 08:58:38;;;;;;;;;;;;;;;18.65;22.78;93431.53;2068886;69;20089;-76
2022/03/28 09:01:04;;;;;;;;;;;;;;;19.11;22.79;93434.16;2055676;70;20467;-76
2022/03/28 09:03:41;;;;;;;;;;;;;;;19.04;21.40;93436.72;2055601;69;20061;-76
2022/03/28 09:06:25;;;;;;;;;;;;;;;19.45;20.30;93432.66;2068687;69;20051;-77
2022/03/28 09:08:51;;;;;;;;;;;;;;;19.37;21.12;93432.31;2055750;69;20129;-77
2022/03/28 09:11:22;;;;;;;;;;;;;;;19.70;22.03;93425.06;2055629;70;20492;-76
2022/03/28 09:13:48;;;;;;;;;;;;;;;20.06;22.31;93429.28;2055562;70;20065;-74
2022/03/28 09:16:19;;;;;;;;;;;;;;;20.28;20.67;93425.78;2055695;69;20046;-76
2022/03/28 09:18:45;;;;;;;;;;;;;;;20.98;19.55;93417.50;2055706;70;20072;-75
2022/03/28 09:21:12;;;;;;;;;;;;;;;20.90;20.59;93420.84;2068686;69;20403;-74
2022/03/28 09:23:39;;;;;;;;;;;;;;;20.16;18.67;93411.03;2055683;70;20051;-74
2022/03/28 09:26:07;;;;;;;;;;;;;;;22.40;18.82;93417.59;2055711;70;20410;-75
2022/03/28 09:28:45;;;;;;;;;;;;;;;22.02;19.13;93409.34;2055759;69;20082;-75
2022/03/28 09:31:20;;;;;;;;;;;;;;;21.98;19.72;93398.47;2055614;69;20145;-74
2022/03/28 09:34:02;;;;;;;;;;;;;;;21.75;18.24;93393.50;2055691;70;20054;-76
2022/03/28 09:36:34;;;;;;;;;;;;;;;22.10;17.84;93389.50;2055711;69;20065;-75
2022/03/28 09:39:00;;;;;;;;;;;;;;;22.19;18.23;93379.03;2055773;70;20571;-75
2022/03/28 09:41:27;;;;;;;;;;;;;;;23.42;16.34;93380.81;2055638;70;20082;-75
2022/03/28 09:43:54;;;;;;;;;;;;;;;23.37;16.38;93387.88;2068538;69;20047;-75
2022/03/28 09:46:30;;;;;;;;;;;;;;;23.07;17.53;93377.09;2055663;70;20061;-75
2022/03/28 09:48:57;;;;;;;;;;;;;;;22.91;17.70;93370.97;2055707;69;20058;-76
2022/03/28 09:51:25;;;;;;;;;;;;;;;21.85;16.55;93361.53;2055707;70;20053;-76
2022/03/28 09:53:51;;;;;;;;;;;;;;;22.44;17.13;93354.63;2055596;70;20050;-76
2022/03/28 09:56:16;;;;;;;;;;;;;;;23.49;16.20;93353.66;2055562;70;20054;-76
2022/03/28 09:58:46;;;;;;;;;;;;;;;24.52;15.50;93351.56;2055508;69;20046;-76
2022/03/28 10:01:14;;;;;;;;;;;;;;;23.94;15.46;93354.69;2054618;70;20453;-73
2022/03/28 10:03:40;;;;;;;;;;;;;;;22.63;15.92;93344.34;2055362;70;20146;-74
2022/03/28 10:06:06;;;;;;;;;;;;;;;24.05;17.12;93339.13;2055494;70;20153;-75
2022/03/28 10:08:33;;;;;;;;;;;;;;;23.19;15.84;93321.38;2055477;70;20095;-75
2022/03/28 10:10:59;;;;;;;;;;;;;;;24.83;15.69;93326.97;2068503;69;20143;-75
2022/03/28 10:13:25;;;;;;;;;;;;;;;25.47;14.59;93320.06;2055459;69;20074;-73
2022/03/28 10:15:52;;;;;;;;;;;;;;;25.51;15.63;93313.63;2055101;70;20419;-75
2022/03/28 10:18:18;;;;;;;;;;;;;;;25.45;14.14;93313.56;2068482;69;20053;-76
2022/03/28 10:20:45;;;;;;;;;;;;;;;25.84;14.87;93303.31;2055461;69;20050;-75
2022/03/28 10:23:12;;;;;;;;;;;;;;;24.99;14.99;93305.59;2055575;70;20051;-73
2022/03/28 10:25:39;;;;;;;;;;;;;;;25.44;13.63;93291.94;2068430;69;20141;-75
2022/03/28 10:28:04;;;;;;;;;;;;;;;25.52;13.94;93292.78;2068392;69;20058;-75
2022/03/28 10:30:30;;;;;;;;;;;;;;;24.71;14.75;93277.78;2055138;69;20401;-76
2022/03/28 10:33:16;;;;;;;;;;;;;;;24.82;14.65;93281.56;2055063;70;20115;-74
2022/03/28 10:36:14;;;;;;;;;;;;;;;25.40;13.88;93263.78;2055214;69;20054;-74
2022/03/28 10:38:39;;;;;;;;;;;;;;;26.46;14.51;93261.50;2049268;70;20053;-74
2022/03/28 10:41:05;;;;;;;;;;;;;;;24.68;14.68;93247.50;2055274;70;20058;-74
2022/03/28 10:43:32;;;;;;;;;;;;;;;25.84;14.30;93246.38;2068195;69;20099;-73
2022/03/28 10:46:07;;;;;;;;;;;;;;;27.13;13.62;93249.84;2068133;69;20119;-75
2022/03/28 10:48:37;;;;;;;;;;;;;;;25.93;13.57;93252.22;2055102;69;20896;-74
2022/03/28 10:51:17;;;;;;;;;;;;;;;26.34;12.98;93242.63;2055308;69;20058;-73
2022/03/28 10:54:06;;;;;;;;;;;;;;;27.51;13.30;93232.75;2055281;70;20106;-73
2022/03/28 10:56:31;;;;;;;;;;;;;;;28.24;12.89;93225.88;2053656;69;20061;-73
2022/03/28 10:58:59;;;;;;;;;;;;;;;28.46;12.61;93217.25;2068152;69;20050;-74
2022/03/28 11:01:25;;;;;;;;;;;;;;;28.01;11.93;93217.09;2055092;69;20050;-74
2022/03/28 11:03:51;;;;;;;;;;;;;;;28.40;11.93;93202.03;2055502;69;20145;-74
2022/03/28 11:06:18;;;;;;;;;;;;;;;31.03;11.28;93204.91;2055275;69;20570;-72
2022/03/28 11:09:03;;;;;;;;;;;;;;;30.74;10.90;93195.69;2055115;69;20060;-73
2022/03/28 11:11:32;;;;;;;;;;;;;;;32.94;10.20;93188.88;2054952;70;20073;-74
2022/03/28 11:13:58;;;;;;;;;;;;;;;32.86;10.21;93192.63;2055148;69;20092;-74
2022/03/28 11:16:42;;;;;;;;;;;;;;;34.63;10.14;93194.47;2055360;69;20511;-75
2022/03/28 11:19:23;;;;;;;;;;;;;;;35.82;9.36;93187.19;2068349;69;20086;-75
2022/03/28 11:22:03;;;;;;;;;;;;;;;37.08;8.98;93191.59;2068075;69;20114;-74
2022/03/28 11:24:41;;;;;;;;;;;;;;;38.82;8.35;93194.38;2055355;70;20069;-74
2022/03/28 11:27:07;;;;;;;;;;;;;;;39.49;8.04;93176.94;2055443;70;20089;-75
2022/03/28 11:29:33;;;;;;;;;;;;;;;35.03;8.68;93169.44;2055702;70;20141;-77
2022/03/28 11:32:03;;;;;;;;;;;;;;;37.62;8.47;93155.34;2068830;69;20174;-73
2022/03/28 11:34:29;;;;;;;;;;;;;;;35.57;8.49;93140.28;2055765;70;20066;-73
2022/03/28 11:37:00;;;;;;;;;;;;;;;37.33;7.89;93156.28;2068776;69;20058;-72
2022/03/28 11:39:27;;;;;;;;;;;;;;;33.98;8.54;93143.28;2055680;69;20179;-72
2022/03/28 11:41:53;;;;;;;;;;;;;;;34.75;7.44;93143.78;2055347;69;20513;-72
2022/03/28 11:44:19;;;;;;;;;;;;;;;36.86;7.77;93134.31;2055482;69;20200;-72
2022/03/28 11:46:52;;;;;;;;;;;;;;;38.32;6.96;93130.81;2055389;69;20062;-73
2022/03/28 11:49:18;;;;;;;;;;;;;;;37.92;7.53;93124.19;2055727;70;20054;-72
2022/03/28 11:51:44;;;;;;;;;;;;;;;37.26;7.51;93116.19;2055434;69;20070;-73
2022/03/28 11:54:12;;;;;;;;;;;;;;;37.88;7.15;93112.56;2055787;70;20142;-72
2022/03/28 11:59:23;;;;;;;;;;;;;;;40.26;6.55;93101.44;2055640;70;20464;-73
2022/03/28 12:01:54;;;;;;;;;;;;;;;36.56;7.46;93080.31;2055377;69;20082;-72
2022/03/28 12:04:20;;;;;;;;;;;;;;;35.45;8.15;93078.41;2055850;70;20062;-73
2022/03/28 12:06:46;;;;;;;;;;;;;;;37.85;6.98;93078.91;2055393;69;20126;-73
2022/03/28 12:09:15;;;;;;;;;;;;;;;38.28;6.84;93074.34;2055661;70;20532;-72
2022/03/28 12:11:45;;;;;;;;;;;;;;;36.63;6.91;93072.75;2055659;70;20086;-70
2022/03/28 12:14:11;;;;;;;;;;;;;;;39.58;6.87;93074.22;2055603;69;20145;-71
2022/03/28 12:16:46;;;;;;;;;;;;;;;36.87;6.34;93064.63;2068704;69;20141;-71
2022/03/28 12:19:25;;;;;;;;;;;;;;;40.03;6.92;93064.13;2055590;70;20050;-72
2022/03/28 12:21:51;;;;;;;;;;;;;;;40.52;5.64;93050.09;2055670;70;20050;-71
2022/03/28 12:24:18;;;;;;;;;;;;;;;38.72;6.13;93048.38;2068770;69;20050;-71
2022/03/28 12:26:44;;;;;;;;;;;;;;;36.97;6.32;93046.00;2055598;70;20512;-72
2022/03/28 12:29:11;;;;;;;;;;;;;;;38.30;5.85;93030.91;2055394;70;20069;-72
2022/03/28 12:31:37;;;;;;;;;;;;;;;38.73;5.70;93032.16;2055453;70;20055;-72
2022/03/28 12:34:03;;;;;;;;;;;;;;;40.66;5.71;93022.13;2055522;70;20520;-73
2022/03/28 12:36:30;;;;;;;;;;;;;;;39.88;5.36;93011.00;2055648;70;20081;-74
2022/03/28 12:39:00;;;;;;;;;;;;;;;39.30;6.57;93005.50;2054928;69;20097;-72
2022/03/28 12:41:29;;;;;;;;;;;;;;;37.89;6.79;93000.16;2068174;69;20432;-74
2022/03/28 12:43:54;;;;;;;;;;;;;;;37.65;6.59;92989.28;2068265;69;20074;-74
2022/03/28 12:46:21;;;;;;;;;;;;;;;38.85;5.93;92990.47;2055426;70;20046;-74
2022/03/28 12:48:49;;;;;;;;;;;;;;;38.76;5.90;92986.44;2055345;69;20062;-73
2022/03/28 12:51:34;;;;;;;;;;;;;;;37.56;5.53;92971.25;2055534;70;20213;-72
2022/03/28 12:54:00;;;;;;;;;;;;;;;36.28;6.67;92975.66;2068782;69;20174;-74
2022/03/28 12:56:27;;;;;;;;;;;;;;;36.71;6.55;92975.00;2055574;69;20050;-73